Briefing drone pour Saint-peray

Rechercher une autre localisation

Conditions de vol :


Nous sommes le : Vendredi 22 janvier 2021
Il est 12:17 UTC (13:18 LT)

Lever de soleil : 06:43 UTC (07:43 LT)
Coucher de soleil : 17:00 UTC (18:00 LT)

Météo

L'essentiel des conditions de vol

VIGILANCE MÉTÉO FRANCE - Ardèche (07)
Vigilance Jaune : Vent violent
CARTES DES FRONTS
METAR de LFLU
LFLU 221200Z AUTO 22012KT 9999 -RADZ BKN049 OVC062 11/09 Q0991

Date d'émission: 22/01/2021
Heure d'émission: 12:00 UTC
Vent: 220° pour 12 KT (22 km/h)
Visibilité horizontale: > 10 km
Plafond :
- Nuages morcelés à 4900ft (1494m)
- Couvert à 6200ft (1890m)
Température: 11 °C
Point de rosée: 9 °C
Humidité: 87%
Pression (QNH): 991 hPa
Prévision 24h pour Valence (3 km)
Vent : 215° pour 3 KT (12 km/h)
Temperature Maxi: 4 °C
Temperature Min: 4 °C
Humidité : 83%
Condition : Nuageux



Warning: count(): Parameter must be an array or an object that implements Countable in /homepages/6/d509196549/htdocs/droneoxygene/briefing.php on line 743
WEBCAM POUR SAINT-PERAY

Réglementation

Voler en sécurité

CARTES AERONAUTIQUE 1/500.000
CARTES VAC (LFLU)
SUP AIP




Chargement des AIP...
NOTAM (SAINT-PERAY + Terrain à proximité / FIR )




Chargement des NOTAMS...
CONTACT PREFECTURE 07


Avertissement : Les données mises à disposition sont indicatives. Oxygène Drone ne pourra être tenu responsable de dégâts causés aux biens et aux personnes.